sensor_id;sensor_type;location;lat;lon;timestamp;P1;durP1;ratioP1;P2;durP2;ratioP2
18610;SDS011;9435;52.122;5.502;2022-12-16T00:01:05;81.93;;;34.55;;
18610;SDS011;9435;52.122;5.502;2022-12-16T00:03:33;75.82;;;33.65;;
18610;SDS011;9435;52.122;5.502;2022-12-16T00:06:01;73.65;;;33.75;;
18610;SDS011;9435;52.122;5.502;2022-12-16T00:08:30;78.50;;;35.15;;
18610;SDS011;9435;52.122;5.502;2022-12-16T00:10:58;78.38;;;34.40;;
18610;SDS011;9435;52.122;5.502;2022-12-16T00:13:28;73.05;;;33.45;;
18610;SDS011;9435;52.122;5.502;2022-12-16T00:15:57;72.28;;;32.65;;
18610;SDS011;9435;52.122;5.502;2022-12-16T00:18:25;78.13;;;33.65;;
18610;SDS011;9435;52.122;5.502;2022-12-16T00:20:52;74.20;;;32.38;;
18610;SDS011;9435;52.122;5.502;2022-12-16T00:23:20;76.30;;;34.70;;
18610;SDS011;9435;52.122;5.502;2022-12-16T00:25:48;76.03;;;35.13;;
18610;SDS011;9435;52.122;5.502;2022-12-16T00:28:16;80.13;;;36.60;;
18610;SDS011;9435;52.122;5.502;2022-12-16T00:30:48;82.05;;;35.45;;
18610;SDS011;9435;52.122;5.502;2022-12-16T00:33:16;72.47;;;34.60;;
18610;SDS011;9435;52.122;5.502;2022-12-16T00:35:45;74.05;;;33.47;;
18610;SDS011;9435;52.122;5.502;2022-12-16T00:38:12;78.63;;;34.83;;
18610;SDS011;9435;52.122;5.502;2022-12-16T00:40:40;82.78;;;36.67;;
18610;SDS011;9435;52.122;5.502;2022-12-16T00:43:07;89.10;;;36.33;;
18610;SDS011;9435;52.122;5.502;2022-12-16T00:45:35;75.55;;;33.42;;
18610;SDS011;9435;52.122;5.502;2022-12-16T00:48:05;74.05;;;33.38;;
18610;SDS011;9435;52.122;5.502;2022-12-16T00:50:32;79.72;;;34.45;;
18610;SDS011;9435;52.122;5.502;2022-12-16T00:52:59;85.97;;;37.20;;
18610;SDS011;9435;52.122;5.502;2022-12-16T00:55:27;80.60;;;35.55;;
18610;SDS011;9435;52.122;5.502;2022-12-16T00:57:54;86.10;;;36.65;;
18610;SDS011;9435;52.122;5.502;2022-12-16T01:00:21;80.03;;;36.47;;
18610;SDS011;9435;52.122;5.502;2022-12-16T01:02:49;79.47;;;35.03;;
18610;SDS011;9435;52.122;5.502;2022-12-16T01:05:19;82.63;;;35.25;;
18610;SDS011;9435;52.122;5.502;2022-12-16T01:07:51;82.45;;;36.58;;
18610;SDS011;9435;52.122;5.502;2022-12-16T01:10:18;85.60;;;35.92;;
18610;SDS011;9435;52.122;5.502;2022-12-16T01:12:46;80.13;;;35.15;;
18610;SDS011;9435;52.122;5.502;2022-12-16T01:15:13;81.45;;;35.45;;
18610;SDS011;9435;52.122;5.502;2022-12-16T01:17:41;81.75;;;35.40;;
18610;SDS011;9435;52.122;5.502;2022-12-16T01:20:08;78.13;;;35.75;;
18610;SDS011;9435;52.122;5.502;2022-12-16T01:22:38;79.07;;;35.53;;
18610;SDS011;9435;52.122;5.502;2022-12-16T01:25:06;85.72;;;35.67;;
18610;SDS011;9435;52.122;5.502;2022-12-16T01:27:35;87.97;;;37.20;;
18610;SDS011;9435;52.122;5.502;2022-12-16T01:30:02;83.45;;;35.10;;
18610;SDS011;9435;52.122;5.502;2022-12-16T01:32:30;84.68;;;36.83;;
18610;SDS011;9435;52.122;5.502;2022-12-16T01:34:57;77.78;;;35.45;;
18610;SDS011;9435;52.122;5.502;2022-12-16T01:37:24;85.65;;;37.10;;
18610;SDS011;9435;52.122;5.502;2022-12-16T01:39:53;83.05;;;36.05;;
18610;SDS011;9435;52.122;5.502;2022-12-16T01:42:20;87.72;;;36.72;;
18610;SDS011;9435;52.122;5.502;2022-12-16T01:44:48;85.90;;;36.13;;
18610;SDS011;9435;52.122;5.502;2022-12-16T01:47:20;80.53;;;36.63;;
18610;SDS011;9435;52.122;5.502;2022-12-16T01:49:51;91.30;;;37.83;;
18610;SDS011;9435;52.122;5.502;2022-12-16T01:52:24;82.38;;;37.42;;
18610;SDS011;9435;52.122;5.502;2022-12-16T01:54:57;96.72;;;38.50;;
18610;SDS011;9435;52.122;5.502;2022-12-16T01:57:29;96.95;;;40.92;;
18610;SDS011;9435;52.122;5.502;2022-12-16T02:00:04;95.10;;;39.55;;
18610;SDS011;9435;52.122;5.502;2022-12-16T02:02:34;86.00;;;38.42;;
18610;SDS011;9435;52.122;5.502;2022-12-16T02:05:02;91.78;;;38.88;;
18610;SDS011;9435;52.122;5.502;2022-12-16T02:07:55;90.63;;;38.25;;
18610;SDS011;9435;52.122;5.502;2022-12-16T02:10:29;86.30;;;37.78;;
18610;SDS011;9435;52.122;5.502;2022-12-16T02:13:05;99.32;;;41.20;;
18610;SDS011;9435;52.122;5.502;2022-12-16T02:15:43;93.20;;;40.47;;
18610;SDS011;9435;52.122;5.502;2022-12-16T02:18:19;92.40;;;38.72;;
18610;SDS011;9435;52.122;5.502;2022-12-16T02:32:50;87.50;;;36.83;;
18610;SDS011;9435;52.122;5.502;2022-12-16T02:35:24;85.85;;;37.53;;
18610;SDS011;9435;52.122;5.502;2022-12-16T02:38:01;87.22;;;39.00;;
18610;SDS011;9435;52.122;5.502;2022-12-16T02:40:43;91.18;;;38.88;;
18610;SDS011;9435;52.122;5.502;2022-12-16T02:43:17;86.18;;;37.40;;
18610;SDS011;9435;52.122;5.502;2022-12-16T02:45:57;91.15;;;38.28;;
18610;SDS011;9435;52.122;5.502;2022-12-16T02:48:25;87.10;;;38.35;;
18610;SDS011;9435;52.122;5.502;2022-12-16T02:50:52;87.90;;;38.78;;
18610;SDS011;9435;52.122;5.502;2022-12-16T02:53:19;84.43;;;38.20;;
18610;SDS011;9435;52.122;5.502;2022-12-16T02:55:49;90.70;;;38.13;;
18610;SDS011;9435;52.122;5.502;2022-12-16T02:58:21;91.55;;;39.35;;
18610;SDS011;9435;52.122;5.502;2022-12-16T03:00:55;90.90;;;38.35;;
18610;SDS011;9435;52.122;5.502;2022-12-16T03:03:29;94.72;;;38.42;;
18610;SDS011;9435;52.122;5.502;2022-12-16T03:06:02;93.10;;;39.95;;
18610;SDS011;9435;52.122;5.502;2022-12-16T03:08:31;89.82;;;39.40;;
18610;SDS011;9435;52.122;5.502;2022-12-16T03:11:01;90.00;;;40.05;;
18610;SDS011;9435;52.122;5.502;2022-12-16T03:13:34;91.43;;;38.17;;
18610;SDS011;9435;52.122;5.502;2022-12-16T03:16:06;98.95;;;40.33;;
18610;SDS011;9435;52.122;5.502;2022-12-16T03:18:36;88.65;;;39.17;;
18610;SDS011;9435;52.122;5.502;2022-12-16T03:21:05;92.70;;;39.35;;
18610;SDS011;9435;52.122;5.502;2022-12-16T03:23:35;89.10;;;38.03;;
18610;SDS011;9435;52.122;5.502;2022-12-16T03:26:07;83.13;;;37.58;;
18610;SDS011;9435;52.122;5.502;2022-12-16T03:28:40;86.90;;;38.47;;
18610;SDS011;9435;52.122;5.502;2022-12-16T03:31:16;80.97;;;37.13;;
18610;SDS011;9435;52.122;5.502;2022-12-16T03:33:55;99.10;;;39.45;;
18610;SDS011;9435;52.122;5.502;2022-12-16T03:36:26;93.25;;;39.88;;
18610;SDS011;9435;52.122;5.502;2022-12-16T03:38:58;95.53;;;38.92;;
18610;SDS011;9435;52.122;5.502;2022-12-16T03:41:26;94.65;;;38.65;;
18610;SDS011;9435;52.122;5.502;2022-12-16T03:43:54;90.88;;;37.42;;
18610;SDS011;9435;52.122;5.502;2022-12-16T03:46:23;92.60;;;37.92;;
18610;SDS011;9435;52.122;5.502;2022-12-16T03:48:50;97.32;;;37.97;;
18610;SDS011;9435;52.122;5.502;2022-12-16T03:51:18;99.50;;;37.67;;
18610;SDS011;9435;52.122;5.502;2022-12-16T03:53:45;88.88;;;37.33;;
18610;SDS011;9435;52.122;5.502;2022-12-16T03:56:12;90.50;;;36.72;;
18610;SDS011;9435;52.122;5.502;2022-12-16T03:58:40;98.45;;;37.47;;
18610;SDS011;9435;52.122;5.502;2022-12-16T04:01:07;96.95;;;38.63;;
18610;SDS011;9435;52.122;5.502;2022-12-16T04:03:36;94.88;;;38.20;;
18610;SDS011;9435;52.122;5.502;2022-12-16T04:06:04;102.28;;;38.28;;
18610;SDS011;9435;52.122;5.502;2022-12-16T04:08:31;100.78;;;39.92;;
18610;SDS011;9435;52.122;5.502;2022-12-16T04:10:58;100.75;;;38.20;;
18610;SDS011;9435;52.122;5.502;2022-12-16T04:13:43;104.03;;;38.53;;
18610;SDS011;9435;52.122;5.502;2022-12-16T04:16:28;107.80;;;40.22;;
18610;SDS011;9435;52.122;5.502;2022-12-16T04:19:17;100.43;;;38.35;;
18610;SDS011;9435;52.122;5.502;2022-12-16T04:22:00;96.60;;;38.83;;
18610;SDS011;9435;52.122;5.502;2022-12-16T04:24:44;93.90;;;37.42;;
18610;SDS011;9435;52.122;5.502;2022-12-16T04:27:11;104.85;;;38.90;;
18610;SDS011;9435;52.122;5.502;2022-12-16T04:29:51;119.18;;;41.58;;
18610;SDS011;9435;52.122;5.502;2022-12-16T04:32:36;104.60;;;40.67;;
18610;SDS011;9435;52.122;5.502;2022-12-16T04:35:18;108.20;;;41.03;;
18610;SDS011;9435;52.122;5.502;2022-12-16T04:38:03;109.93;;;40.33;;
18610;SDS011;9435;52.122;5.502;2022-12-16T04:40:47;108.22;;;39.75;;
18610;SDS011;9435;52.122;5.502;2022-12-16T04:43:32;107.53;;;40.75;;
18610;SDS011;9435;52.122;5.502;2022-12-16T04:46:16;113.90;;;40.05;;
18610;SDS011;9435;52.122;5.502;2022-12-16T04:49:01;103.68;;;37.72;;
18610;SDS011;9435;52.122;5.502;2022-12-16T04:51:46;102.38;;;39.47;;
18610;SDS011;9435;52.122;5.502;2022-12-16T04:54:31;105.15;;;39.15;;
18610;SDS011;9435;52.122;5.502;2022-12-16T04:57:15;100.95;;;38.75;;
18610;SDS011;9435;52.122;5.502;2022-12-16T04:59:59;93.95;;;36.88;;
18610;SDS011;9435;52.122;5.502;2022-12-16T05:02:49;94.03;;;36.13;;
18610;SDS011;9435;52.122;5.502;2022-12-16T05:05:34;90.40;;;35.63;;
18610;SDS011;9435;52.122;5.502;2022-12-16T05:08:20;88.03;;;35.42;;
18610;SDS011;9435;52.122;5.502;2022-12-16T05:11:04;89.25;;;35.95;;
18610;SDS011;9435;52.122;5.502;2022-12-16T05:13:48;97.22;;;38.08;;
18610;SDS011;9435;52.122;5.502;2022-12-16T05:16:33;93.25;;;37.20;;
18610;SDS011;9435;52.122;5.502;2022-12-16T05:19:17;88.20;;;36.33;;
18610;SDS011;9435;52.122;5.502;2022-12-16T05:22:02;88.38;;;36.10;;
18610;SDS011;9435;52.122;5.502;2022-12-16T05:24:48;89.80;;;35.13;;
18610;SDS011;9435;52.122;5.502;2022-12-16T05:27:32;80.00;;;33.72;;
18610;SDS011;9435;52.122;5.502;2022-12-16T05:30:16;79.57;;;33.28;;
18610;SDS011;9435;52.122;5.502;2022-12-16T05:33:09;77.13;;;32.08;;
18610;SDS011;9435;52.122;5.502;2022-12-16T05:35:53;82.03;;;33.15;;
18610;SDS011;9435;52.122;5.502;2022-12-16T05:38:38;76.82;;;32.65;;
18610;SDS011;9435;52.122;5.502;2022-12-16T05:41:24;81.60;;;32.53;;
18610;SDS011;9435;52.122;5.502;2022-12-16T05:44:08;76.57;;;32.38;;
18610;SDS011;9435;52.122;5.502;2022-12-16T05:46:52;74.07;;;31.35;;
18610;SDS011;9435;52.122;5.502;2022-12-16T05:49:37;71.80;;;30.70;;
18610;SDS011;9435;52.122;5.502;2022-12-16T05:52:21;77.53;;;31.58;;
18610;SDS011;9435;52.122;5.502;2022-12-16T05:55:06;83.60;;;31.83;;
18610;SDS011;9435;52.122;5.502;2022-12-16T05:57:52;73.10;;;30.60;;
18610;SDS011;9435;52.122;5.502;2022-12-16T06:00:37;72.00;;;31.02;;
18610;SDS011;9435;52.122;5.502;2022-12-16T06:03:21;70.05;;;30.75;;
18610;SDS011;9435;52.122;5.502;2022-12-16T06:06:06;67.53;;;29.05;;
18610;SDS011;9435;52.122;5.502;2022-12-16T06:08:50;65.72;;;29.20;;
18610;SDS011;9435;52.122;5.502;2022-12-16T06:11:35;69.07;;;29.35;;
18610;SDS011;9435;52.122;5.502;2022-12-16T06:14:21;67.53;;;28.88;;
18610;SDS011;9435;52.122;5.502;2022-12-16T06:17:05;60.40;;;27.02;;
18610;SDS011;9435;52.122;5.502;2022-12-16T06:19:49;58.60;;;26.27;;
18610;SDS011;9435;52.122;5.502;2022-12-16T06:22:34;57.25;;;24.02;;
18610;SDS011;9435;52.122;5.502;2022-12-16T06:25:27;54.15;;;23.67;;
18610;SDS011;9435;52.122;5.502;2022-12-16T06:28:11;56.17;;;23.02;;
18610;SDS011;9435;52.122;5.502;2022-12-16T06:30:57;47.47;;;21.13;;
18610;SDS011;9435;52.122;5.502;2022-12-16T06:33:41;49.60;;;20.67;;
18610;SDS011;9435;52.122;5.502;2022-12-16T06:36:25;49.25;;;19.70;;
18610;SDS011;9435;52.122;5.502;2022-12-16T06:39:09;48.25;;;20.10;;
18610;SDS011;9435;52.122;5.502;2022-12-16T06:41:54;50.47;;;20.27;;
18610;SDS011;9435;52.122;5.502;2022-12-16T06:44:38;50.40;;;20.45;;
18610;SDS011;9435;52.122;5.502;2022-12-16T06:47:24;47.85;;;20.92;;
18610;SDS011;9435;52.122;5.502;2022-12-16T06:50:08;48.13;;;21.17;;
18610;SDS011;9435;52.122;5.502;2022-12-16T06:52:53;41.20;;;18.45;;
18610;SDS011;9435;52.122;5.502;2022-12-16T06:55:38;45.17;;;20.10;;
18610;SDS011;9435;52.122;5.502;2022-12-16T06:58:22;42.55;;;19.77;;
18610;SDS011;9435;52.122;5.502;2022-12-16T07:01:07;50.10;;;19.50;;
18610;SDS011;9435;52.122;5.502;2022-12-16T07:04:07;43.80;;;20.42;;
18610;SDS011;9435;52.122;5.502;2022-12-16T07:07:03;49.55;;;20.30;;
18610;SDS011;9435;52.122;5.502;2022-12-16T07:09:48;40.90;;;18.55;;
18610;SDS011;9435;52.122;5.502;2022-12-16T07:12:33;45.78;;;20.90;;
18610;SDS011;9435;52.122;5.502;2022-12-16T07:15:18;47.85;;;20.15;;
18610;SDS011;9435;52.122;5.502;2022-12-16T07:18:02;52.85;;;19.80;;
18610;SDS011;9435;52.122;5.502;2022-12-16T07:20:49;48.15;;;19.73;;
18610;SDS011;9435;52.122;5.502;2022-12-16T07:23:33;43.33;;;19.27;;
18610;SDS011;9435;52.122;5.502;2022-12-16T07:26:18;46.63;;;19.17;;
18610;SDS011;9435;52.122;5.502;2022-12-16T07:29:02;44.05;;;19.48;;
18610;SDS011;9435;52.122;5.502;2022-12-16T07:31:47;41.42;;;17.88;;
18610;SDS011;9435;52.122;5.502;2022-12-16T07:34:32;43.15;;;18.73;;
18610;SDS011;9435;52.122;5.502;2022-12-16T07:37:18;40.45;;;18.48;;
18610;SDS011;9435;52.122;5.502;2022-12-16T07:40:03;43.90;;;19.40;;
18610;SDS011;9435;52.122;5.502;2022-12-16T07:42:48;47.50;;;18.10;;
18610;SDS011;9435;52.122;5.502;2022-12-16T07:45:33;39.38;;;16.73;;
18610;SDS011;9435;52.122;5.502;2022-12-16T07:48:18;42.00;;;17.15;;
18610;SDS011;9435;52.122;5.502;2022-12-16T07:51:02;38.20;;;16.13;;
18610;SDS011;9435;52.122;5.502;2022-12-16T07:53:48;39.78;;;16.25;;
18610;SDS011;9435;52.122;5.502;2022-12-16T07:56:32;34.22;;;15.10;;
18610;SDS011;9435;52.122;5.502;2022-12-16T07:59:17;36.35;;;15.35;;
18610;SDS011;9435;52.122;5.502;2022-12-16T08:02:02;40.22;;;15.68;;
18610;SDS011;9435;52.122;5.502;2022-12-16T08:04:46;42.17;;;15.48;;
18610;SDS011;9435;52.122;5.502;2022-12-16T08:07:31;40.15;;;14.95;;
18610;SDS011;9435;52.122;5.502;2022-12-16T08:10:17;38.58;;;15.73;;
18610;SDS011;9435;52.122;5.502;2022-12-16T08:13:02;36.60;;;15.32;;
18610;SDS011;9435;52.122;5.502;2022-12-16T08:15:47;40.35;;;17.00;;
18610;SDS011;9435;52.122;5.502;2022-12-16T08:18:31;37.38;;;15.20;;
18610;SDS011;9435;52.122;5.502;2022-12-16T08:21:16;33.67;;;14.10;;
18610;SDS011;9435;52.122;5.502;2022-12-16T08:24:00;38.33;;;13.95;;
18610;SDS011;9435;52.122;5.502;2022-12-16T08:26:46;35.03;;;13.77;;
18610;SDS011;9435;52.122;5.502;2022-12-16T08:29:30;33.20;;;14.55;;
18610;SDS011;9435;52.122;5.502;2022-12-16T08:32:15;32.67;;;13.23;;
18610;SDS011;9435;52.122;5.502;2022-12-16T08:35:00;38.33;;;12.98;;
18610;SDS011;9435;52.122;5.502;2022-12-16T08:37:45;36.47;;;13.23;;
18610;SDS011;9435;52.122;5.502;2022-12-16T08:40:29;32.40;;;12.60;;
18610;SDS011;9435;52.122;5.502;2022-12-16T08:43:15;38.13;;;15.85;;
18610;SDS011;9435;52.122;5.502;2022-12-16T08:45:59;45.95;;;19.30;;
18610;SDS011;9435;52.122;5.502;2022-12-16T08:48:44;34.35;;;15.00;;
18610;SDS011;9435;52.122;5.502;2022-12-16T08:51:28;33.90;;;11.02;;
18610;SDS011;9435;52.122;5.502;2022-12-16T08:54:13;29.40;;;10.40;;
18610;SDS011;9435;52.122;5.502;2022-12-16T08:56:57;25.63;;;10.02;;
18610;SDS011;9435;52.122;5.502;2022-12-16T08:59:43;26.42;;;10.13;;
18610;SDS011;9435;52.122;5.502;2022-12-16T09:02:28;29.33;;;10.00;;
18610;SDS011;9435;52.122;5.502;2022-12-16T09:05:12;27.23;;;10.52;;
18610;SDS011;9435;52.122;5.502;2022-12-16T09:07:57;26.92;;;9.50;;
18610;SDS011;9435;52.122;5.502;2022-12-16T09:10:42;22.02;;;8.90;;
18610;SDS011;9435;52.122;5.502;2022-12-16T09:13:27;26.00;;;9.98;;
18610;SDS011;9435;52.122;5.502;2022-12-16T09:16:09;25.90;;;9.98;;
18610;SDS011;9435;52.122;5.502;2022-12-16T09:19:02;25.08;;;9.85;;
18610;SDS011;9435;52.122;5.502;2022-12-16T09:21:46;25.00;;;9.88;;
18610;SDS011;9435;52.122;5.502;2022-12-16T09:24:31;25.10;;;10.07;;
18610;SDS011;9435;52.122;5.502;2022-12-16T09:27:15;29.98;;;9.70;;
18610;SDS011;9435;52.122;5.502;2022-12-16T09:29:59;26.50;;;9.55;;
18610;SDS011;9435;52.122;5.502;2022-12-16T09:33:01;25.58;;;8.85;;
18610;SDS011;9435;52.122;5.502;2022-12-16T09:35:45;25.08;;;9.43;;
18610;SDS011;9435;52.122;5.502;2022-12-16T09:38:30;28.38;;;9.07;;
18610;SDS011;9435;52.122;5.502;2022-12-16T09:41:29;26.40;;;9.10;;
18610;SDS011;9435;52.122;5.502;2022-12-16T09:44:22;26.83;;;9.45;;
18610;SDS011;9435;52.122;5.502;2022-12-16T09:47:22;27.38;;;9.35;;
18610;SDS011;9435;52.122;5.502;2022-12-16T09:50:15;21.95;;;8.80;;
18610;SDS011;9435;52.122;5.502;2022-12-16T09:53:04;26.05;;;8.68;;
18610;SDS011;9435;52.122;5.502;2022-12-16T09:55:53;24.70;;;8.82;;
18610;SDS011;9435;52.122;5.502;2022-12-16T09:58:38;23.85;;;9.13;;
18610;SDS011;9435;52.122;5.502;2022-12-16T10:01:25;24.63;;;8.80;;
18610;SDS011;9435;52.122;5.502;2022-12-16T10:04:15;29.25;;;11.88;;
18610;SDS011;9435;52.122;5.502;2022-12-16T10:07:01;25.95;;;10.05;;
18610;SDS011;9435;52.122;5.502;2022-12-16T10:09:53;24.30;;;8.75;;
18610;SDS011;9435;52.122;5.502;2022-12-16T10:12:43;24.02;;;9.32;;
18610;SDS011;9435;52.122;5.502;2022-12-16T10:15:33;26.52;;;9.55;;
18610;SDS011;9435;52.122;5.502;2022-12-16T10:18:24;25.33;;;9.77;;
18610;SDS011;9435;52.122;5.502;2022-12-16T10:21:22;23.63;;;9.73;;
18610;SDS011;9435;52.122;5.502;2022-12-16T10:24:16;23.23;;;9.45;;
18610;SDS011;9435;52.122;5.502;2022-12-16T10:27:13;26.27;;;9.70;;
18610;SDS011;9435;52.122;5.502;2022-12-16T10:29:59;32.08;;;9.82;;
18610;SDS011;9435;52.122;5.502;2022-12-16T10:32:45;26.55;;;10.50;;
18610;SDS011;9435;52.122;5.502;2022-12-16T10:35:36;27.10;;;10.82;;
18610;SDS011;9435;52.122;5.502;2022-12-16T10:38:27;22.77;;;10.30;;
18610;SDS011;9435;52.122;5.502;2022-12-16T10:41:19;29.27;;;11.02;;
18610;SDS011;9435;52.122;5.502;2022-12-16T10:44:11;35.88;;;11.07;;
18610;SDS011;9435;52.122;5.502;2022-12-16T10:47:03;26.98;;;11.77;;
18610;SDS011;9435;52.122;5.502;2022-12-16T10:49:47;30.52;;;11.88;;
18610;SDS011;9435;52.122;5.502;2022-12-16T10:52:42;27.25;;;11.98;;
18610;SDS011;9435;52.122;5.502;2022-12-16T10:55:30;29.20;;;11.45;;
18610;SDS011;9435;52.122;5.502;2022-12-16T10:58:24;27.65;;;11.80;;
18610;SDS011;9435;52.122;5.502;2022-12-16T11:01:20;29.33;;;11.73;;
18610;SDS011;9435;52.122;5.502;2022-12-16T11:07:21;31.88;;;12.73;;
18610;SDS011;9435;52.122;5.502;2022-12-16T11:13:22;38.05;;;16.10;;
18610;SDS011;9435;52.122;5.502;2022-12-16T11:16:11;37.05;;;15.23;;
18610;SDS011;9435;52.122;5.502;2022-12-16T11:19:01;42.72;;;17.67;;
18610;SDS011;9435;52.122;5.502;2022-12-16T11:21:46;42.88;;;18.08;;
18610;SDS011;9435;52.122;5.502;2022-12-16T11:24:31;38.35;;;17.75;;
18610;SDS011;9435;52.122;5.502;2022-12-16T11:27:20;44.40;;;18.52;;
18610;SDS011;9435;52.122;5.502;2022-12-16T11:30:16;45.42;;;20.45;;
18610;SDS011;9435;52.122;5.502;2022-12-16T11:33:05;44.28;;;18.98;;
18610;SDS011;9435;52.122;5.502;2022-12-16T11:35:57;46.70;;;19.58;;
18610;SDS011;9435;52.122;5.502;2022-12-16T11:38:48;44.28;;;19.23;;
18610;SDS011;9435;52.122;5.502;2022-12-16T11:41:36;49.00;;;19.85;;
18610;SDS011;9435;52.122;5.502;2022-12-16T11:44:24;43.97;;;19.25;;
18610;SDS011;9435;52.122;5.502;2022-12-16T11:47:14;44.85;;;19.10;;
18610;SDS011;9435;52.122;5.502;2022-12-16T11:50:07;38.75;;;17.75;;
18610;SDS011;9435;52.122;5.502;2022-12-16T11:52:56;49.95;;;20.50;;
18610;SDS011;9435;52.122;5.502;2022-12-16T11:55:43;46.50;;;20.63;;
18610;SDS011;9435;52.122;5.502;2022-12-16T11:58:32;50.17;;;22.27;;
18610;SDS011;9435;52.122;5.502;2022-12-16T12:01:22;54.40;;;24.40;;
18610;SDS011;9435;52.122;5.502;2022-12-16T12:04:11;53.78;;;23.48;;
18610;SDS011;9435;52.122;5.502;2022-12-16T12:10:05;56.15;;;23.55;;
18610;SDS011;9435;52.122;5.502;2022-12-16T12:13:04;49.03;;;22.65;;
18610;SDS011;9435;52.122;5.502;2022-12-16T12:15:54;56.65;;;24.02;;
18610;SDS011;9435;52.122;5.502;2022-12-16T12:18:48;56.70;;;24.48;;
18610;SDS011;9435;52.122;5.502;2022-12-16T12:21:42;65.45;;;27.50;;
18610;SDS011;9435;52.122;5.502;2022-12-16T12:24:28;58.88;;;25.85;;
18610;SDS011;9435;52.122;5.502;2022-12-16T12:27:22;55.63;;;24.02;;
18610;SDS011;9435;52.122;5.502;2022-12-16T12:30:13;51.97;;;23.58;;
18610;SDS011;9435;52.122;5.502;2022-12-16T12:33:05;49.47;;;23.67;;
18610;SDS011;9435;52.122;5.502;2022-12-16T12:36:03;53.55;;;24.92;;
18610;SDS011;9435;52.122;5.502;2022-12-16T12:39:00;49.72;;;23.98;;
18610;SDS011;9435;52.122;5.502;2022-12-16T12:41:55;54.03;;;24.42;;
18610;SDS011;9435;52.122;5.502;2022-12-16T12:44:58;54.25;;;24.40;;
18610;SDS011;9435;52.122;5.502;2022-12-16T12:48:04;54.50;;;23.95;;
18610;SDS011;9435;52.122;5.502;2022-12-16T12:50:54;54.22;;;25.17;;
18610;SDS011;9435;52.122;5.502;2022-12-16T12:53:48;55.50;;;25.65;;
18610;SDS011;9435;52.122;5.502;2022-12-16T12:56:50;53.45;;;25.05;;
18610;SDS011;9435;52.122;5.502;2022-12-16T12:59:39;52.83;;;24.38;;
18610;SDS011;9435;52.122;5.502;2022-12-16T13:02:37;54.30;;;24.58;;
18610;SDS011;9435;52.122;5.502;2022-12-16T13:05:27;53.35;;;25.23;;
18610;SDS011;9435;52.122;5.502;2022-12-16T13:11:38;56.30;;;25.02;;
18610;SDS011;9435;52.122;5.502;2022-12-16T13:14:54;52.63;;;25.00;;
18610;SDS011;9435;52.122;5.502;2022-12-16T13:24:41;55.78;;;25.45;;
18610;SDS011;9435;52.122;5.502;2022-12-16T13:27:30;63.00;;;27.33;;
18610;SDS011;9435;52.122;5.502;2022-12-16T13:30:31;59.30;;;25.75;;
18610;SDS011;9435;52.122;5.502;2022-12-16T13:33:21;60.72;;;27.77;;
18610;SDS011;9435;52.122;5.502;2022-12-16T13:36:16;58.92;;;26.98;;
18610;SDS011;9435;52.122;5.502;2022-12-16T13:39:07;58.90;;;27.35;;
18610;SDS011;9435;52.122;5.502;2022-12-16T13:42:04;65.60;;;28.13;;
18610;SDS011;9435;52.122;5.502;2022-12-16T13:44:53;62.83;;;28.23;;
18610;SDS011;9435;52.122;5.502;2022-12-16T13:47:59;62.55;;;28.27;;
18610;SDS011;9435;52.122;5.502;2022-12-16T13:50:49;59.50;;;27.52;;
18610;SDS011;9435;52.122;5.502;2022-12-16T13:53:37;63.75;;;28.45;;
18610;SDS011;9435;52.122;5.502;2022-12-16T13:56:26;60.28;;;28.05;;
18610;SDS011;9435;52.122;5.502;2022-12-16T13:59:17;61.85;;;28.58;;
18610;SDS011;9435;52.122;5.502;2022-12-16T14:02:17;62.03;;;28.10;;
18610;SDS011;9435;52.122;5.502;2022-12-16T14:05:15;62.90;;;28.52;;
18610;SDS011;9435;52.122;5.502;2022-12-16T14:08:02;62.40;;;28.27;;
18610;SDS011;9435;52.122;5.502;2022-12-16T14:10:52;59.92;;;27.90;;
18610;SDS011;9435;52.122;5.502;2022-12-16T14:13:41;63.67;;;29.17;;
18610;SDS011;9435;52.122;5.502;2022-12-16T14:16:34;59.65;;;28.48;;
18610;SDS011;9435;52.122;5.502;2022-12-16T14:19:26;61.38;;;28.80;;
18610;SDS011;9435;52.122;5.502;2022-12-16T14:22:26;60.90;;;27.90;;
18610;SDS011;9435;52.122;5.502;2022-12-16T14:25:22;65.70;;;28.50;;
18610;SDS011;9435;52.122;5.502;2022-12-16T14:28:07;65.30;;;29.70;;
18610;SDS011;9435;52.122;5.502;2022-12-16T14:31:02;61.53;;;28.98;;
18610;SDS011;9435;52.122;5.502;2022-12-16T14:33:51;65.97;;;30.67;;
18610;SDS011;9435;52.122;5.502;2022-12-16T14:36:37;63.78;;;29.90;;
18610;SDS011;9435;52.122;5.502;2022-12-16T14:39:26;67.70;;;31.17;;
18610;SDS011;9435;52.122;5.502;2022-12-16T14:42:20;70.53;;;32.15;;
18610;SDS011;9435;52.122;5.502;2022-12-16T14:45:18;63.90;;;29.45;;
18610;SDS011;9435;52.122;5.502;2022-12-16T14:48:12;68.65;;;31.33;;
18610;SDS011;9435;52.122;5.502;2022-12-16T14:51:13;68.53;;;30.85;;
18610;SDS011;9435;52.122;5.502;2022-12-16T14:54:08;73.20;;;31.10;;
18610;SDS011;9435;52.122;5.502;2022-12-16T14:57:02;72.43;;;30.77;;
18610;SDS011;9435;52.122;5.502;2022-12-16T14:59:47;64.35;;;29.52;;
18610;SDS011;9435;52.122;5.502;2022-12-16T15:02:42;64.53;;;30.50;;
18610;SDS011;9435;52.122;5.502;2022-12-16T15:05:31;61.75;;;28.58;;
18610;SDS011;9435;52.122;5.502;2022-12-16T15:08:17;63.67;;;29.92;;
18610;SDS011;9435;52.122;5.502;2022-12-16T15:11:03;68.03;;;30.33;;
18610;SDS011;9435;52.122;5.502;2022-12-16T15:13:52;76.90;;;32.20;;
18610;SDS011;9435;52.122;5.502;2022-12-16T15:16:40;70.35;;;31.27;;
18610;SDS011;9435;52.122;5.502;2022-12-16T15:19:26;65.60;;;30.63;;
18610;SDS011;9435;52.122;5.502;2022-12-16T15:22:15;63.83;;;30.55;;
18610;SDS011;9435;52.122;5.502;2022-12-16T15:24:59;60.80;;;29.25;;
18610;SDS011;9435;52.122;5.502;2022-12-16T15:27:51;63.90;;;30.25;;
18610;SDS011;9435;52.122;5.502;2022-12-16T15:30:39;65.00;;;29.95;;
18610;SDS011;9435;52.122;5.502;2022-12-16T15:33:25;60.90;;;28.63;;
18610;SDS011;9435;52.122;5.502;2022-12-16T15:36:16;63.53;;;29.50;;
18610;SDS011;9435;52.122;5.502;2022-12-16T15:39:08;64.38;;;29.13;;
18610;SDS011;9435;52.122;5.502;2022-12-16T15:42:03;64.57;;;29.85;;
18610;SDS011;9435;52.122;5.502;2022-12-16T15:44:49;61.33;;;30.00;;
18610;SDS011;9435;52.122;5.502;2022-12-16T15:47:36;62.10;;;29.27;;
18610;SDS011;9435;52.122;5.502;2022-12-16T15:50:22;71.70;;;31.42;;
18610;SDS011;9435;52.122;5.502;2022-12-16T15:53:16;65.53;;;29.83;;
18610;SDS011;9435;52.122;5.502;2022-12-16T15:56:19;68.53;;;31.17;;
18610;SDS011;9435;52.122;5.502;2022-12-16T15:59:13;66.50;;;29.80;;
18610;SDS011;9435;52.122;5.502;2022-12-16T16:02:05;68.60;;;30.83;;
18610;SDS011;9435;52.122;5.502;2022-12-16T16:04:58;69.13;;;30.42;;
18610;SDS011;9435;52.122;5.502;2022-12-16T16:07:42;65.85;;;30.13;;
18610;SDS011;9435;52.122;5.502;2022-12-16T16:10:27;66.82;;;29.38;;
18610;SDS011;9435;52.122;5.502;2022-12-16T16:13:11;65.43;;;29.77;;
18610;SDS011;9435;52.122;5.502;2022-12-16T16:15:56;70.03;;;32.05;;
18610;SDS011;9435;52.122;5.502;2022-12-16T16:18:40;69.50;;;31.23;;
18610;SDS011;9435;52.122;5.502;2022-12-16T16:21:27;72.72;;;30.75;;
18610;SDS011;9435;52.122;5.502;2022-12-16T16:24:12;73.10;;;32.45;;
18610;SDS011;9435;52.122;5.502;2022-12-16T16:26:57;66.63;;;30.80;;
18610;SDS011;9435;52.122;5.502;2022-12-16T16:29:43;68.40;;;32.03;;
18610;SDS011;9435;52.122;5.502;2022-12-16T16:32:28;71.63;;;31.73;;
18610;SDS011;9435;52.122;5.502;2022-12-16T16:35:12;76.45;;;32.83;;
18610;SDS011;9435;52.122;5.502;2022-12-16T16:37:58;72.88;;;33.30;;
18610;SDS011;9435;52.122;5.502;2022-12-16T16:40:43;74.63;;;32.00;;
18610;SDS011;9435;52.122;5.502;2022-12-16T16:43:29;77.47;;;33.45;;